Time;durP1;ratioP1;P1;durP2;ratioP2;P2;SDS_P1;SDS_P2;PMS_P1;PMS_P2;Temp;Humidity;BMP_temperature;BMP_pressure;BME280_temperature;BME280_humidity;BME280_pressure;Samples;Min_cycle;Max_cycle;Signal;HPM_P1;HPM_P2
2023/07/15 00:01:24;;;;;;;4.93;4.43;;;21.60;1.00;;;;;;5137735;27;20444;-50
2023/07/15 00:03:50;;;;;;;4.50;3.80;;;21.60;1.00;;;;;;5138232;27;20182;-53
2023/07/15 00:06:17;;;;;;;4.60;4.20;;;21.60;1.00;;;;;;5120927;27;20443;-50
2023/07/15 00:08:44;;;;;;;4.07;3.63;;;21.60;1.00;;;;;;5120394;27;20546;-50
2023/07/15 00:11:29;;;;;;;4.77;4.40;;;21.60;1.00;;;;;;5138528;27;20490;-48
2023/07/15 00:13:56;;;;;;;6.30;3.87;;;21.60;1.00;;;;;;5139808;27;20424;-51
2023/07/15 00:16:22;;;;;;;5.20;4.50;;;21.50;1.00;;;;;;5138808;27;20871;-50
2023/07/15 00:18:48;;;;;;;4.50;4.10;;;21.40;1.00;;;;;;5120923;27;20539;-53
2023/07/15 00:21:25;;;;;;;4.10;3.80;;;21.50;1.00;;;;;;5139193;27;20179;-49
2023/07/15 00:23:55;;;;;;;5.23;3.90;;;21.40;1.00;;;;;;5139622;27;20239;-51
2023/07/15 00:26:24;;;;;;;5.07;4.37;;;21.30;1.00;;;;;;5121784;27;20428;-52
2023/07/15 00:28:50;;;;;;;4.47;4.03;;;21.30;1.00;;;;;;5138624;27;20470;-50
2023/07/15 00:31:17;;;;;;;5.07;4.60;;;21.30;1.00;;;;;;5138198;27;20699;-52
2023/07/15 00:33:43;;;;;;;5.13;4.63;;;21.30;1.00;;;;;;5140515;27;20457;-50
2023/07/15 00:36:10;;;;;;;4.97;4.57;;;21.40;1.00;;;;;;5139627;27;20460;-50
2023/07/15 00:38:37;;;;;;;6.03;4.63;;;21.40;1.00;;;;;;5139642;27;20523;-52
2023/07/15 00:41:03;;;;;;;4.13;3.73;;;21.40;1.00;;;;;;5120832;27;20825;-50
2023/07/15 00:43:58;;;;;;;4.67;4.27;;;21.30;1.00;;;;;;5121075;27;20835;-51
2023/07/15 00:46:48;;;;;;;4.73;4.20;;;21.30;1.00;;;;;;5139692;27;20409;-49
2023/07/15 00:49:24;;;;;;;5.60;4.50;;;21.30;1.00;;;;;;5139135;27;20877;-50
2023/07/15 00:52:13;;;;;;;4.60;4.20;;;21.20;1.00;;;;;;5139309;27;20462;-49
2023/07/15 00:54:42;;;;;;;4.90;3.63;;;21.20;1.00;;;;;;5121423;27;20424;-49
2023/07/15 00:57:13;;;;;;;4.13;3.83;;;21.20;1.00;;;;;;5120736;27;20536;-50
2023/07/15 00:59:39;;;;;;;4.20;3.90;;;21.20;1.00;;;;;;5118989;27;20489;-53
2023/07/15 01:02:05;;;;;;;5.07;4.67;;;21.10;1.00;;;;;;5137595;27;20508;-50
2023/07/15 01:04:31;;;;;;;4.03;3.73;;;21.10;1.00;;;;;;5119152;27;20524;-49
2023/07/15 01:06:56;;;;;;;5.90;3.97;;;21.10;1.00;;;;;;5136362;27;20480;-50
2023/07/15 01:09:24;;;;;;;7.10;4.47;;;21.10;1.00;;;;;;5135804;27;20179;-49
2023/07/15 01:11:49;;;;;;;5.40;4.50;;;21.10;1.00;;;;;;5118763;27;20179;-52
2023/07/15 01:14:15;;;;;;;4.60;4.20;;;21.10;1.00;;;;;;5137916;27;20659;-49
2023/07/15 01:16:40;;;;;;;4.37;3.97;;;21.10;1.00;;;;;;5137513;27;20248;-51
2023/07/15 01:19:06;;;;;;;4.87;4.10;;;21.20;1.00;;;;;;5119486;27;20603;-50
2023/07/15 01:21:35;;;;;;;4.00;3.63;;;21.20;1.00;;;;;;5139751;27;20214;-51
2023/07/15 01:24:02;;;;;;;4.50;4.10;;;21.20;1.00;;;;;;5138851;27;20186;-51
2023/07/15 01:26:29;;;;;;;5.33;4.27;;;21.20;1.00;;;;;;5137252;27;20710;-51
2023/07/15 01:28:54;;;;;;;4.30;4.00;;;21.20;1.00;;;;;;5137479;27;20424;-54
2023/07/15 01:31:20;;;;;;;4.70;4.30;;;21.20;1.00;;;;;;5137229;27;20440;-53
2023/07/15 01:33:47;;;;;;;4.17;3.77;;;21.10;1.00;;;;;;5137150;27;20297;-49
2023/07/15 01:36:13;;;;;;;4.40;4.10;;;21.10;1.00;;;;;;5103395;27;20204;-51
2023/07/15 01:38:40;;;;;;;4.90;4.50;;;21.10;1.00;;;;;;5138569;27;20425;-51
2023/07/15 01:41:06;;;;;;;4.70;4.27;;;21.10;1.00;;;;;;5136797;27;20175;-53
2023/07/15 01:43:32;;;;;;;4.40;4.00;;;21.10;1.00;;;;;;5138476;27;20871;-50
2023/07/15 01:45:58;;;;;;;4.47;3.47;;;21.10;1.00;;;;;;5138742;27;20327;-49
2023/07/15 01:48:27;;;;;;;5.30;4.27;;;21.00;1.00;;;;;;5137271;27;20202;-53
2023/07/15 01:50:53;;;;;;;5.63;3.53;;;21.00;1.00;;;;;;5122547;27;20500;-52
2023/07/15 01:53:19;;;;;;;4.43;4.00;;;21.00;1.00;;;;;;5137084;27;20420;-48
2023/07/15 01:55:45;;;;;;;5.03;4.10;;;21.10;1.00;;;;;;5137408;27;20533;-51
2023/07/15 01:58:10;;;;;;;4.43;4.00;;;21.10;1.00;;;;;;5137191;27;20447;-52
2023/07/15 02:00:36;;;;;;;5.27;4.20;;;21.10;1.00;;;;;;5137396;27;20284;-53
2023/07/15 02:03:20;;;;;;;4.40;4.00;;;21.10;1.00;;;;;;5138182;27;20328;-50
2023/07/15 02:05:48;;;;;;;4.20;3.90;;;21.20;1.00;;;;;;5136716;27;20587;-51
2023/07/15 02:08:14;;;;;;;5.03;4.23;;;21.10;1.00;;;;;;5135229;27;20538;-51
2023/07/15 02:10:39;;;;;;;4.23;3.87;;;21.10;1.00;;;;;;5136133;27;20416;-51
2023/07/15 02:13:05;;;;;;;3.70;3.40;;;21.10;1.00;;;;;;5136671;27;20442;-51
2023/07/15 02:15:30;;;;;;;3.93;3.60;;;21.10;1.00;;;;;;5136907;27;20238;-53
2023/07/15 02:17:56;;;;;;;4.40;4.00;;;21.00;1.00;;;;;;5137343;27;20226;-50
2023/07/15 02:20:22;;;;;;;4.50;4.10;;;21.00;1.00;;;;;;5137422;27;20540;-53
2023/07/15 02:22:48;;;;;;;4.53;4.13;;;21.10;1.00;;;;;;5136558;27;20179;-50
2023/07/15 02:25:13;;;;;;;4.17;3.87;;;21.10;1.00;;;;;;5136620;27;20517;-53
2023/07/15 02:27:39;;;;;;;4.30;4.00;;;21.10;1.00;;;;;;5137382;27;20270;-49
2023/07/15 02:30:08;;;;;;;4.63;4.23;;;21.10;1.00;;;;;;5136902;27;20175;-50
2023/07/15 02:32:35;;;;;;;4.53;4.13;;;21.10;1.00;;;;;;5137685;27;20175;-53
2023/07/15 02:35:02;;;;;;;4.37;4.00;;;21.10;1.00;;;;;;5136556;27;20491;-48
2023/07/15 02:37:27;;;;;;;4.50;4.10;;;21.00;1.00;;;;;;5136471;27;20435;-49
2023/07/15 02:39:53;;;;;;;4.50;4.20;;;21.00;1.00;;;;;;5135925;27;20440;-50
2023/07/15 02:42:18;;;;;;;5.50;4.10;;;21.00;6.20;;;;;;5136388;27;20159;-48
2023/07/15 02:44:44;;;;;;;4.20;3.90;;;21.00;14.50;;;;;;5136413;27;20262;-50
2023/07/15 02:47:10;;;;;;;5.60;5.10;;;21.00;17.30;;;;;;5135957;27;20255;-48
2023/07/15 02:49:35;;;;;;;3.80;3.50;;;21.00;19.30;;;;;;5135103;27;20261;-47
2023/07/15 02:52:01;;;;;;;6.40;4.67;;;21.00;21.90;;;;;;5135518;27;20194;-49
2023/07/15 02:54:27;;;;;;;5.07;4.47;;;21.00;25.10;;;;;;5136124;27;20266;-47
2023/07/15 02:56:53;;;;;;;4.20;3.90;;;21.00;43.10;;;;;;5136278;27;20588;-48
2023/07/15 03:02:44;;;;;;;4.60;4.20;;;21.00;56.60;;;;;;5136695;27;20640;-46
2023/07/15 03:05:10;;;;;;;4.73;4.30;;;21.00;69.50;;;;;;5137517;27;20484;-50
2023/07/15 03:07:36;;;;;;;4.30;3.90;;;21.00;65.00;;;;;;5119219;27;20777;-48
2023/07/15 03:10:06;;;;;;;4.57;4.17;;;21.00;60.70;;;;;;5137034;27;20427;-48
2023/07/15 03:12:32;;;;;;;4.47;4.07;;;21.00;83.60;;;;;;5137038;27;20171;-46
2023/07/15 03:14:58;;;;;;;4.70;4.30;;;21.00;68.90;;;;;;5136918;27;20505;-49
2023/07/15 03:17:23;;;;;;;9.93;4.57;;;21.00;64.40;;;;;;5137108;27;20830;-47
2023/07/15 03:19:49;;;;;;;4.83;4.33;;;21.00;93.50;;;;;;5137224;27;20179;-49
2023/07/15 03:22:14;;;;;;;4.83;4.43;;;21.00;99.90;;;;;;5137179;27;20177;-47
2023/07/15 03:24:40;;;;;;;5.60;4.50;;;20.90;99.90;;;;;;5137273;27;20214;-48
2023/07/15 03:27:05;;;;;;;4.73;4.33;;;20.90;98.10;;;;;;5137178;27;20421;-51
2023/07/15 03:29:32;;;;;;;4.80;4.40;;;21.00;99.90;;;;;;5136318;27;20183;-49
2023/07/15 03:31:57;;;;;;;4.53;4.00;;;21.00;99.90;;;;;;5135298;27;20273;-53
2023/07/15 03:34:23;;;;;;;4.87;4.30;;;21.00;99.90;;;;;;5133909;27;20466;-51
2023/07/15 03:36:49;;;;;;;4.53;4.03;;;21.10;99.90;;;;;;5132294;27;20607;-50
2023/07/15 03:39:14;;;;;;;5.40;4.90;;;21.00;99.90;;;;;;5134271;28;20183;-48
2023/07/15 03:41:40;;;;;;;5.40;4.90;;;21.00;99.90;;;;;;5133261;28;20433;-50
2023/07/15 03:44:05;;;;;;;6.60;4.80;;;21.00;99.90;;;;;;5132281;28;20272;-49
2023/07/15 03:46:31;;;;;;;5.23;4.77;;;21.00;99.90;;;;;;5113902;28;20496;-48
2023/07/15 03:48:57;;;;;;;5.17;4.57;;;21.00;99.90;;;;;;5132512;28;20441;-50
2023/07/15 03:51:22;;;;;;;5.27;4.77;;;21.00;99.90;;;;;;5134172;28;20186;-52
2023/07/15 03:53:48;;;;;;;5.10;4.70;;;21.00;99.90;;;;;;5133693;28;20563;-50
2023/07/15 03:56:14;;;;;;;5.33;4.80;;;21.10;99.90;;;;;;5116742;28;20476;-49
2023/07/15 03:58:39;;;;;;;5.60;5.10;;;21.00;99.90;;;;;;5135465;27;20497;-50
2023/07/15 04:01:05;;;;;;;4.67;4.23;;;21.00;99.90;;;;;;5136306;28;20594;-57
2023/07/15 04:03:30;;;;;;;6.13;4.60;;;21.10;99.90;;;;;;5136294;28;20179;-58
2023/07/15 04:05:56;;;;;;;5.00;4.50;;;21.10;99.90;;;;;;5136425;28;20179;-58
2023/07/15 04:08:22;;;;;;;4.43;4.03;;;21.20;99.90;;;;;;5136476;28;20226;-60
2023/07/15 04:10:47;;;;;;;4.50;4.10;;;21.30;99.90;;;;;;5136359;28;20183;-56
2023/07/15 04:13:13;;;;;;;6.23;5.10;;;21.30;99.90;;;;;;5116775;28;20468;-58
2023/07/15 04:15:39;;;;;;;4.83;4.43;;;21.40;99.90;;;;;;5135292;28;20206;-57
2023/07/15 04:18:04;;;;;;;5.27;4.83;;;21.30;99.90;;;;;;5135255;28;20477;-57
2023/07/15 04:20:30;;;;;;;5.10;4.63;;;21.30;99.90;;;;;;5134866;28;20167;-55
2023/07/15 04:22:56;;;;;;;4.90;4.50;;;21.30;99.90;;;;;;5134396;28;20262;-57
2023/07/15 04:25:21;;;;;;;4.13;3.83;;;21.20;99.90;;;;;;5135025;28;20410;-57
2023/07/15 04:27:47;;;;;;;5.07;4.57;;;21.20;99.90;;;;;;5135184;28;20179;-54
2023/07/15 04:30:13;;;;;;;4.60;4.30;;;21.20;99.90;;;;;;5135517;28;20191;-57
2023/07/15 04:32:38;;;;;;;4.77;4.27;;;21.20;99.90;;;;;;5135136;28;20178;-57
2023/07/15 04:35:04;;;;;;;4.80;4.40;;;21.20;96.50;;;;;;5135383;28;20340;-56
2023/07/15 04:37:30;;;;;;;5.80;4.00;;;21.30;90.80;;;;;;5135183;27;20588;-57
2023/07/15 04:39:56;;;;;;;6.10;4.37;;;21.30;79.50;;;;;;5135476;28;20416;-56
2023/07/15 04:42:22;;;;;;;6.10;4.60;;;21.40;64.30;;;;;;5135976;28;20511;-55
2023/07/15 04:44:48;;;;;;;4.60;4.20;;;21.40;52.00;;;;;;5136367;27;20265;-58
2023/07/15 04:47:13;;;;;;;4.63;4.23;;;21.50;37.10;;;;;;5140106;27;20543;-58
2023/07/15 04:49:39;;;;;;;3.93;3.53;;;21.50;23.70;;;;;;5121353;27;20179;-58
2023/07/15 04:52:05;;;;;;;5.50;4.70;;;21.60;10.20;;;;;;5139226;27;20236;-57
2023/07/15 04:54:31;;;;;;;5.57;4.27;;;21.70;1.00;;;;;;5137845;27;20448;-58
2023/07/15 04:56:56;;;;;;;4.43;4.03;;;21.80;1.00;;;;;;5139263;27;20826;-58
2023/07/15 04:59:22;;;;;;;4.70;4.30;;;21.90;1.00;;;;;;5138552;27;20527;-57
2023/07/15 05:01:48;;;;;;;4.37;3.97;;;21.90;1.00;;;;;;5139716;27;20178;-57
2023/07/15 05:04:14;;;;;;;4.17;3.80;;;22.00;1.00;;;;;;5138908;27;20531;-58
2023/07/15 05:06:40;;;;;;;6.23;4.40;;;22.10;1.00;;;;;;5138925;27;20447;-57
2023/07/15 05:09:05;;;;;;;3.90;3.50;;;22.10;1.00;;;;;;5138303;27;20627;-58
2023/07/15 05:11:31;;;;;;;4.57;4.17;;;22.20;1.00;;;;;;5138359;27;20247;-57
2023/07/15 05:13:56;;;;;;;4.37;3.87;;;22.20;1.00;;;;;;5138609;27;20198;-58
2023/07/15 05:16:22;;;;;;;5.87;3.90;;;22.30;1.00;;;;;;5138609;27;20242;-58
2023/07/15 05:18:48;;;;;;;4.60;4.20;;;22.40;1.00;;;;;;5137924;27;20240;-57
2023/07/15 05:21:14;;;;;;;4.57;4.17;;;22.50;1.00;;;;;;5138111;27;20183;-57
2023/07/15 05:23:39;;;;;;;4.37;3.97;;;22.60;1.00;;;;;;5137387;27;20263;-58
2023/07/15 05:26:05;;;;;;;3.90;3.60;;;22.60;1.00;;;;;;5137704;27;20856;-58
2023/07/15 05:28:31;;;;;;;5.67;4.13;;;22.70;1.00;;;;;;5137953;27;20202;-57
2023/07/15 05:30:58;;;;;;;5.63;5.03;;;22.80;1.00;;;;;;5138227;27;20179;-57
2023/07/15 05:33:23;;;;;;;6.90;5.10;;;22.80;1.00;;;;;;5137665;27;20567;-58
2023/07/15 05:35:49;;;;;;;4.83;4.43;;;22.90;1.00;;;;;;5136743;27;20460;-57
2023/07/15 05:38:14;;;;;;;4.90;4.03;;;22.90;1.00;;;;;;5135919;27;20190;-58
2023/07/15 05:40:41;;;;;;;4.63;4.23;;;23.00;1.00;;;;;;5135226;27;20258;-57
2023/07/15 05:43:07;;;;;;;4.57;4.17;;;23.00;1.00;;;;;;5135395;27;20404;-58
2023/07/15 05:45:33;;;;;;;8.77;4.47;;;23.10;1.00;;;;;;5135439;27;20420;-56
2023/07/15 05:47:59;;;;;;;5.20;4.33;;;23.10;1.00;;;;;;5134110;27;20695;-58
2023/07/15 05:50:24;;;;;;;4.60;4.20;;;23.10;1.00;;;;;;5134808;27;20471;-58
2023/07/15 05:52:50;;;;;;;3.93;3.53;;;23.20;1.00;;;;;;5135415;27;20540;-58
2023/07/15 05:55:17;;;;;;;4.60;4.20;;;23.40;1.00;;;;;;5134631;27;20186;-57
2023/07/15 05:57:43;;;;;;;4.60;4.20;;;23.40;1.00;;;;;;5136754;27;20238;-58
2023/07/15 06:00:09;;;;;;;3.90;3.60;;;23.50;1.00;;;;;;5136525;27;20760;-58
2023/07/15 06:02:36;;;;;;;4.37;4.03;;;23.60;1.00;;;;;;5136253;27;20199;-58
2023/07/15 06:05:11;;;;;;;5.00;4.03;;;23.80;1.00;;;;;;5137174;27;20416;-58
2023/07/15 06:07:37;;;;;;;4.93;4.53;;;23.90;1.00;;;;;;5137205;27;20524;-58
2023/07/15 06:10:03;;;;;;;4.37;4.07;;;24.10;1.00;;;;;;5137591;27;20427;-57
2023/07/15 06:12:29;;;;;;;4.50;4.10;;;24.30;1.00;;;;;;5134979;27;20179;-56
2023/07/15 06:14:55;;;;;;;4.63;4.23;;;24.50;1.00;;;;;;5136920;27;20438;-58
2023/07/15 06:17:21;;;;;;;4.00;3.70;;;24.60;1.00;;;;;;5135987;27;20238;-58
2023/07/15 06:19:47;;;;;;;4.30;3.90;;;24.80;1.00;;;;;;5136327;27;20424;-58
2023/07/15 06:22:12;;;;;;;5.40;3.70;;;25.00;1.00;;;;;;5135750;27;20175;-57
2023/07/15 06:24:38;;;;;;;3.80;3.50;;;25.10;1.00;;;;;;5137185;27;20164;-58
2023/07/15 06:27:04;;;;;;;4.97;3.60;;;25.20;1.00;;;;;;5135750;27;20206;-55
2023/07/15 06:29:29;;;;;;;4.13;3.80;;;25.30;1.00;;;;;;5135991;27;20224;-56
2023/07/15 06:31:55;;;;;;;5.30;3.87;;;25.40;1.00;;;;;;5137139;27;20210;-58
2023/07/15 06:34:21;;;;;;;3.93;3.63;;;25.50;1.00;;;;;;5137192;27;20387;-58
2023/07/15 06:36:46;;;;;;;5.00;4.17;;;25.60;1.00;;;;;;5137465;27;20458;-58
2023/07/15 06:39:12;;;;;;;4.27;3.87;;;25.70;1.00;;;;;;5118643;27;20182;-58
2023/07/15 06:41:38;;;;;;;5.93;4.00;;;25.80;1.00;;;;;;5135299;27;20167;-56
2023/07/15 06:44:04;;;;;;;5.47;4.33;;;26.00;1.00;;;;;;5136906;27;20428;-58
2023/07/15 06:46:29;;;;;;;4.63;4.30;;;26.10;1.00;;;;;;5136580;27;20228;-57
2023/07/15 06:48:55;;;;;;;4.30;3.90;;;26.30;1.00;;;;;;5135676;27;20529;-56
2023/07/15 06:51:22;;;;;;;4.90;3.60;;;26.40;1.00;;;;;;5132942;27;20171;-58
2023/07/15 06:53:48;;;;;;;4.77;4.37;;;26.50;1.00;;;;;;5132529;27;20902;-54
2023/07/15 06:56:14;;;;;;;4.17;3.80;;;26.60;1.00;;;;;;5133259;27;20474;-58
2023/07/15 06:58:39;;;;;;;4.60;3.90;;;26.60;1.00;;;;;;5132910;27;20500;-58
2023/07/15 07:01:05;;;;;;;5.10;4.57;;;26.80;1.00;;;;;;5134508;27;20503;-57
2023/07/15 07:03:32;;;;;;;4.47;4.10;;;26.90;1.00;;;;;;5134807;27;20171;-57
2023/07/15 07:05:57;;;;;;;5.53;5.03;;;26.90;1.00;;;;;;5135759;27;20189;-57
2023/07/15 07:08:23;;;;;;;5.10;4.40;;;27.10;1.00;;;;;;5134833;27;20473;-57
2023/07/15 07:10:51;;;;;;;6.37;4.37;;;27.20;1.00;;;;;;5134082;27;20463;-57
2023/07/15 07:13:18;;;;;;;4.87;3.73;;;27.30;1.00;;;;;;5134095;27;20174;-58
2023/07/15 07:15:44;;;;;;;4.40;4.00;;;27.50;1.00;;;;;;5114385;27;20460;-55
2023/07/15 07:18:11;;;;;;;4.23;3.87;;;27.70;1.00;;;;;;5133027;27;20421;-58
2023/07/15 07:20:39;;;;;;;6.07;4.30;;;28.00;1.00;;;;;;5135829;27;20171;-56
2023/07/15 07:23:05;;;;;;;4.37;4.07;;;28.20;1.00;;;;;;5134872;27;20806;-55
2023/07/15 07:25:31;;;;;;;4.30;3.90;;;28.30;1.00;;;;;;5135511;27;20401;-57
2023/07/15 07:27:56;;;;;;;3.40;3.10;;;28.50;1.00;;;;;;5133873;27;20583;-58
2023/07/15 07:30:22;;;;;;;4.33;4.03;;;28.70;1.00;;;;;;5135325;27;20190;-57
2023/07/15 07:32:48;;;;;;;5.07;3.77;;;28.80;1.00;;;;;;5135136;27;20183;-54
2023/07/15 07:35:14;;;;;;;4.53;3.70;;;28.70;1.00;;;;;;5117308;28;20179;-57
2023/07/15 07:37:39;;;;;;;4.23;3.83;;;28.60;1.00;;;;;;5132764;27;20412;-56
2023/07/15 07:40:06;;;;;;;4.40;4.00;;;28.80;1.00;;;;;;5134231;28;20266;-56
2023/07/15 07:42:32;;;;;;;4.80;3.87;;;29.00;1.00;;;;;;5132323;28;20175;-56
2023/07/15 07:44:57;;;;;;;4.33;3.93;;;29.30;1.00;;;;;;5133811;28;20440;-56
2023/07/15 07:47:23;;;;;;;4.30;3.90;;;29.40;1.00;;;;;;5133957;28;20181;-56
2023/07/15 07:49:49;;;;;;;3.73;3.43;;;29.50;1.00;;;;;;5115009;28;20179;-58
2023/07/15 07:52:15;;;;;;;4.03;3.73;;;29.70;1.00;;;;;;5134724;28;20412;-58
2023/07/15 07:54:40;;;;;;;4.13;3.73;;;29.50;1.00;;;;;;5133978;28;20265;-58
2023/07/15 07:57:06;;;;;;;5.60;4.10;;;29.50;1.00;;;;;;5132843;28;20604;-58
2023/07/15 07:59:32;;;;;;;4.10;3.67;;;29.40;1.00;;;;;;5133632;28;20193;-58
2023/07/15 08:01:57;;;;;;;4.13;3.73;;;29.50;1.00;;;;;;5131133;28;20279;-57
2023/07/15 08:04:23;;;;;;;3.77;3.47;;;29.20;1.00;;;;;;5130589;28;20155;-58
2023/07/15 08:06:48;;;;;;;4.93;4.50;;;29.30;1.00;;;;;;5132069;28;20178;-57
2023/07/15 08:09:14;;;;;;;4.90;4.00;;;29.60;1.00;;;;;;5132328;28;20190;-55
2023/07/15 08:11:42;;;;;;;5.20;4.13;;;30.00;1.00;;;;;;5114846;28;20530;-48
2023/07/15 08:14:08;;;;;;;4.17;3.77;;;30.40;1.00;;;;;;5131428;28;20548;-50
2023/07/15 08:16:38;;;;;;;4.10;3.70;;;30.50;1.00;;;;;;5131929;28;20419;-47
2023/07/15 08:19:05;;;;;;;4.57;4.17;;;30.50;1.00;;;;;;5133194;27;20659;-49
2023/07/15 08:21:31;;;;;;;4.10;3.80;;;30.50;1.00;;;;;;5137285;27;20394;-49
2023/07/15 08:23:57;;;;;;;4.60;4.20;;;30.40;1.00;;;;;;5135861;27;20416;-49
2023/07/15 08:26:23;;;;;;;5.60;4.10;;;30.40;1.00;;;;;;5118870;27;20395;-48
2023/07/15 08:28:49;;;;;;;4.47;4.07;;;30.40;1.00;;;;;;5135748;27;20231;-52
2023/07/15 08:31:14;;;;;;;4.53;3.47;;;30.30;1.00;;;;;;5137484;27;20538;-49
2023/07/15 08:33:40;;;;;;;4.03;3.73;;;30.50;1.00;;;;;;5138701;27;20520;-50
2023/07/15 08:36:06;;;;;;;3.70;3.40;;;30.70;1.00;;;;;;5137424;27;20266;-51
2023/07/15 08:38:32;;;;;;;6.53;4.30;;;30.80;1.00;;;;;;5136808;27;20292;-53
2023/07/15 08:41:01;;;;;;;3.80;3.33;;;31.00;1.00;;;;;;5135318;27;20270;-51
2023/07/15 08:43:32;;;;;;;7.37;4.80;;;31.30;1.00;;;;;;5134986;27;20400;-48
2023/07/15 08:46:07;;;;;;;5.43;4.33;;;31.80;1.00;;;;;;5134173;27;20737;-49
2023/07/15 08:48:34;;;;;;;4.20;3.90;;;32.00;1.00;;;;;;5135555;27;20867;-49
2023/07/15 08:51:00;;;;;;;4.60;4.20;;;32.30;1.00;;;;;;5134477;27;20424;-52
2023/07/15 08:53:27;;;;;;;4.20;3.80;;;32.40;1.00;;;;;;5133719;27;20847;-51
2023/07/15 08:55:55;;;;;;;5.70;4.00;;;32.50;1.00;;;;;;5132175;27;20506;-50
2023/07/15 08:58:21;;;;;;;4.50;4.17;;;32.30;1.00;;;;;;5132051;27;20458;-49
2023/07/15 09:00:47;;;;;;;4.53;4.23;;;32.70;1.00;;;;;;5116201;27;20408;-47
2023/07/15 09:03:12;;;;;;;4.47;4.07;;;32.90;1.00;;;;;;5114658;27;20684;-50
2023/07/15 09:05:38;;;;;;;4.20;3.80;;;32.90;1.00;;;;;;5132429;27;20206;-50
2023/07/15 09:08:12;;;;;;;6.60;4.00;;;32.90;1.00;;;;;;5098615;27;20223;-52
2023/07/15 09:10:52;;;;;;;4.33;3.83;;;32.70;1.00;;;;;;5133396;27;20171;-50
2023/07/15 09:13:25;;;;;;;4.70;4.30;;;32.80;1.00;;;;;;5136455;27;20435;-49
2023/07/15 09:15:52;;;;;;;4.60;4.30;;;33.00;1.00;;;;;;5136552;27;20460;-50
2023/07/15 09:18:18;;;;;;;5.37;4.17;;;32.90;1.00;;;;;;5117271;27;20447;-53
2023/07/15 09:20:44;;;;;;;5.13;4.63;;;32.60;1.00;;;;;;5136280;27;20478;-50
2023/07/15 09:23:10;;;;;;;5.03;3.83;;;32.70;1.00;;;;;;5118063;27;21023;-51
2023/07/15 09:25:36;;;;;;;4.30;3.90;;;32.70;1.00;;;;;;5118737;27;20197;-49
2023/07/15 09:28:02;;;;;;;4.40;4.00;;;32.70;1.00;;;;;;5136772;27;20179;-49
2023/07/15 09:30:27;;;;;;;182.63;31.07;;;32.90;1.00;;;;;;5135597;27;20998;-52
2023/07/15 09:32:53;;;;;;;4.53;4.13;;;33.20;1.00;;;;;;5136191;27;20592;-49
2023/07/15 09:35:20;;;;;;;4.40;3.90;;;33.50;1.00;;;;;;5136794;27;20203;-49
2023/07/15 09:37:47;;;;;;;4.33;3.93;;;33.60;1.00;;;;;;5135435;27;20202;-48
2023/07/15 09:40:13;;;;;;;4.10;3.70;;;33.40;1.00;;;;;;5135685;27;20395;-51
2023/07/15 09:42:55;;;;;;;3.57;3.27;;;33.70;1.00;;;;;;5115271;27;20643;-48
2023/07/15 09:45:40;;;;;;;4.40;4.10;;;33.50;1.00;;;;;;5135607;27;20611;-50
2023/07/15 09:48:10;;;;;;;4.47;4.07;;;33.40;1.00;;;;;;5135666;27;20802;-50
2023/07/15 09:50:38;;;;;;;5.03;4.03;;;33.70;1.00;;;;;;5135638;27;20489;-47
2023/07/15 09:53:04;;;;;;;4.00;3.70;;;33.90;1.00;;;;;;5134835;27;20969;-49
2023/07/15 09:55:31;;;;;;;4.03;3.60;;;34.10;1.00;;;;;;5135899;27;20491;-49
2023/07/15 09:58:12;;;;;;;4.13;3.80;;;34.00;1.00;;;;;;5136649;27;20405;-51
2023/07/15 10:00:43;;;;;;;4.70;4.30;;;34.50;1.00;;;;;;5136248;27;20445;-52
2023/07/15 10:03:15;;;;;;;4.43;4.03;;;34.90;1.00;;;;;;5136601;27;20424;-49
2023/07/15 10:05:41;;;;;;;4.23;3.83;;;34.90;1.00;;;;;;5117896;27;20399;-50
2023/07/15 10:08:06;;;;;;;3.80;3.50;;;35.20;1.00;;;;;;5135919;27;20473;-51
2023/07/15 10:10:32;;;;;;;4.60;4.20;;;35.60;1.00;;;;;;5137270;27;20178;-48
2023/07/15 10:12:58;;;;;;;3.40;3.20;;;35.70;1.00;;;;;;5118177;27;20262;-49
2023/07/15 10:15:24;;;;;;;4.23;3.73;;;35.90;1.00;;;;;;5118366;27;20585;-52
2023/07/15 10:17:49;;;;;;;4.13;3.50;;;36.50;1.00;;;;;;5119126;27;20499;-53
2023/07/15 10:20:15;;;;;;;4.53;3.90;;;36.90;1.00;;;;;;5137332;27;20471;-52
2023/07/15 10:22:42;;;;;;;4.10;3.53;;;36.60;1.00;;;;;;5134714;27;20191;-50
2023/07/15 10:25:09;;;;;;;4.10;3.80;;;36.60;1.00;;;;;;5115864;27;20571;-49
2023/07/15 10:27:36;;;;;;;3.57;3.30;;;36.60;1.00;;;;;;5116754;27;20400;-50
2023/07/15 10:30:15;;;;;;;3.97;3.60;;;37.10;1.00;;;;;;5134600;27;20418;-51
2023/07/15 10:33:24;;;;;;;5.20;3.27;;;36.60;1.00;;;;;;5136485;27;20414;-49
2023/07/15 10:35:52;;;;;;;3.70;3.40;;;36.40;1.00;;;;;;5030507;28;20575;-48
2023/07/15 10:38:25;;;;;;;3.80;3.23;;;36.10;1.00;;;;;;5102985;27;20872;-48
2023/07/15 10:41:02;;;;;;;3.33;3.03;;;35.60;1.00;;;;;;5133525;27;20630;-49
2023/07/15 10:43:33;;;;;;;3.40;2.90;;;35.30;1.00;;;;;;5132464;27;20535;-53
2023/07/15 10:46:07;;;;;;;3.20;3.00;;;35.30;1.00;;;;;;5134313;27;20380;-51
2023/07/15 10:48:33;;;;;;;3.80;3.50;;;35.60;1.00;;;;;;5116969;27;20560;-50
2023/07/15 10:51:05;;;;;;;3.80;3.50;;;36.00;1.00;;;;;;5133579;27;20421;-50
2023/07/15 10:53:31;;;;;;;3.60;3.30;;;36.40;1.00;;;;;;5133623;27;20772;-50
2023/07/15 10:56:02;;;;;;;3.30;3.00;;;36.50;1.00;;;;;;5133215;27;20476;-50
2023/07/15 10:58:29;;;;;;;3.60;3.30;;;36.50;1.00;;;;;;5135553;27;20250;-50
2023/07/15 11:01:01;;;;;;;3.80;3.50;;;36.80;1.00;;;;;;5133211;27;20405;-50
2023/07/15 11:03:31;;;;;;;4.53;3.53;;;37.20;1.00;;;;;;5132525;27;20486;-50
2023/07/15 11:06:04;;;;;;;3.70;3.30;;;37.00;1.00;;;;;;5132463;27;20428;-52
2023/07/15 11:08:31;;;;;;;3.80;3.50;;;36.90;1.00;;;;;;5132744;27;20717;-51
2023/07/15 11:11:01;;;;;;;4.03;3.50;;;36.60;1.00;;;;;;5132759;27;20404;-52
2023/07/15 11:13:28;;;;;;;3.80;3.50;;;36.60;1.00;;;;;;5130711;27;20458;-50
2023/07/15 11:15:54;;;;;;;3.57;3.27;;;36.90;1.00;;;;;;5112636;27;20770;-51
2023/07/15 11:18:21;;;;;;;3.90;3.60;;;37.50;1.00;;;;;;5131051;27;20846;-53
2023/07/15 11:20:49;;;;;;;3.73;3.43;;;37.60;1.00;;;;;;5133184;27;20828;-52
2023/07/15 11:23:16;;;;;;;4.50;4.10;;;37.20;1.00;;;;;;5131996;27;20395;-53
2023/07/15 11:25:42;;;;;;;3.73;3.43;;;37.20;1.00;;;;;;5131955;27;20417;-48
2023/07/15 11:28:09;;;;;;;4.57;3.53;;;36.80;1.00;;;;;;5134608;27;20394;-51
2023/07/15 11:30:37;;;;;;;5.57;3.77;;;36.50;1.00;;;;;;5115494;27;20647;-49
2023/07/15 11:33:03;;;;;;;3.70;3.40;;;36.90;1.00;;;;;;5132834;27;20618;-53
2023/07/15 11:35:33;;;;;;;4.47;4.07;;;37.80;1.00;;;;;;5129054;27;20424;-51
2023/07/15 11:38:06;;;;;;;3.60;3.40;;;38.60;1.00;;;;;;5111561;28;20421;-51
2023/07/15 11:40:33;;;;;;;3.60;3.30;;;39.60;1.00;;;;;;5130537;27;20954;-53
2023/07/15 11:42:59;;;;;;;3.60;3.30;;;40.30;1.00;;;;;;5112424;28;20456;-51
2023/07/15 11:45:24;;;;;;;3.30;3.10;;;40.60;1.00;;;;;;5132147;28;20450;-53
2023/07/15 11:47:55;;;;;;;3.97;3.53;;;40.40;1.00;;;;;;5132697;28;20179;-53
2023/07/15 11:50:27;;;;;;;4.00;3.70;;;40.40;1.00;;;;;;5131273;28;20175;-51
2023/07/15 11:52:55;;;;;;;3.47;3.17;;;39.70;1.00;;;;;;5132440;28;20413;-51
2023/07/15 11:55:25;;;;;;;3.40;3.20;;;39.00;1.00;;;;;;5119254;27;20420;-53
2023/07/15 11:57:51;;;;;;;5.00;4.60;;;38.50;1.00;;;;;;5136013;27;20849;-50
2023/07/15 12:00:32;;;;;;;7.27;6.60;;;37.60;1.00;;;;;;5136461;27;20520;-52
2023/07/15 12:02:58;;;;;;;4.97;4.50;;;36.90;1.00;;;;;;5137054;27;20416;-49
2023/07/15 12:05:24;;;;;;;4.47;3.73;;;36.40;1.00;;;;;;5119151;27;20415;-49
2023/07/15 12:07:50;;;;;;;3.80;3.50;;;36.20;1.00;;;;;;5127106;27;20627;-51
2023/07/15 12:10:20;;;;;;;3.37;3.07;;;36.10;1.00;;;;;;5137604;27;20175;-51
2023/07/15 12:12:53;;;;;;;3.90;3.60;;;36.00;1.00;;;;;;5118293;27;20432;-51
2023/07/15 12:15:19;;;;;;;3.67;3.30;;;36.10;1.00;;;;;;5137070;27;20424;-50
2023/07/15 12:17:45;;;;;;;3.87;3.50;;;36.50;1.00;;;;;;5118842;27;20387;-50
2023/07/15 12:20:11;;;;;;;4.80;4.33;;;36.90;1.00;;;;;;5137112;27;20501;-48
2023/07/15 12:22:38;;;;;;;4.27;3.87;;;37.80;1.00;;;;;;5135921;27;20167;-49
2023/07/15 12:25:04;;;;;;;5.70;5.20;;;38.50;1.00;;;;;;5133001;27;20383;-50
2023/07/15 12:27:32;;;;;;;4.63;4.23;;;39.10;1.00;;;;;;5134882;27;20424;-51
2023/07/15 12:29:57;;;;;;;5.60;5.20;;;39.20;1.00;;;;;;5134719;27;20448;-54
2023/07/15 12:32:24;;;;;;;5.20;4.70;;;38.70;1.00;;;;;;5135190;27;20495;-53
2023/07/15 12:34:50;;;;;;;7.83;4.93;;;38.20;1.00;;;;;;5135111;27;20199;-49
2023/07/15 12:37:15;;;;;;;8.17;5.33;;;37.90;1.00;;;;;;5134573;27;20831;-50
2023/07/15 12:39:41;;;;;;;5.23;4.70;;;37.60;1.00;;;;;;5119011;27;20179;-52
2023/07/15 12:42:07;;;;;;;5.40;5.00;;;37.20;1.00;;;;;;5136673;27;20425;-54
2023/07/15 12:44:33;;;;;;;5.30;4.57;;;37.00;1.00;;;;;;5138376;27;20167;-51
2023/07/15 12:46:59;;;;;;;5.57;5.10;;;37.30;1.00;;;;;;5137240;27;20746;-49
2023/07/15 12:49:24;;;;;;;4.70;4.40;;;38.00;1.00;;;;;;5136777;27;20171;-50
2023/07/15 12:51:50;;;;;;;4.90;4.50;;;38.80;1.00;;;;;;5118288;27;20182;-49
2023/07/15 12:54:16;;;;;;;4.57;4.17;;;39.40;1.00;;;;;;5137005;27;20489;-51
2023/07/15 12:56:41;;;;;;;6.47;4.80;;;39.80;1.00;;;;;;5139052;27;20376;-50
2023/07/15 12:59:07;;;;;;;5.40;4.90;;;40.30;1.00;;;;;;5136384;27;20167;-49